Time;durP1;ratioP1;P1;durP2;ratioP2;P2;SDS_P1;SDS_P2;PMS_P1;PMS_P2;Temp;Humidity;BMP_temperature;BMP_pressure;BME280_temperature;BME280_humidity;BME280_pressure;Samples;Min_cycle;Max_cycle;Signal;HPM_P1;HPM_P2
2024/03/13 00:00:53;;;;;;;7.40;4.50;;;;;;;9.45;98.31;98145.16;4199848;28;20671;-79
2024/03/13 00:02:58;;;;;;;7.97;5.10;;;;;;;9.43;98.73;98140.06;4215265;27;20626;-78
2024/03/13 00:05:02;;;;;;;8.85;5.43;;;;;;;9.44;99.11;98141.75;4203923;28;20637;-79
2024/03/13 00:07:06;;;;;;;9.40;5.60;;;;;;;9.43;98.97;98144.44;4221791;27;20220;-78
2024/03/13 00:09:11;;;;;;;11.23;5.95;;;;;;;9.41;98.73;98133.28;4208521;28;20625;-78
2024/03/13 00:11:15;;;;;;;10.77;6.20;;;;;;;9.42;99.21;98140.97;4204891;28;20212;-86
2024/03/13 00:13:19;;;;;;;9.40;5.73;;;;;;;9.39;99.49;98135.16;4209294;28;21027;-87
2024/03/13 00:15:23;;;;;;;11.50;5.73;;;;;;;9.37;98.99;98136.16;4206010;28;20688;-87
2024/03/13 00:17:25;;;;;;;9.40;6.40;;;;;;;9.37;99.69;98129.22;4202080;28;21027;-87
2024/03/13 00:19:29;;;;;;;10.50;6.70;;;;;;;9.37;99.56;98126.59;4201086;28;21261;-86
2024/03/13 00:21:36;;;;;;;9.07;6.57;;;;;;;9.37;99.72;98131.81;4207458;28;21061;-86
2024/03/13 00:23:39;;;;;;;10.20;7.13;;;;;;;9.36;99.95;98124.94;4202478;28;20627;-86
2024/03/13 00:25:43;;;;;;;14.50;9.20;;;;;;;9.36;100.00;98129.31;4204370;28;20634;-86
2024/03/13 00:27:46;;;;;;;11.10;7.87;;;;;;;9.36;100.00;98129.31;4203596;28;20618;-87
2024/03/13 00:29:52;;;;;;;13.77;8.25;;;;;;;9.38;100.00;98128.25;4188144;28;20726;-86
2024/03/13 00:31:56;;;;;;;11.97;8.00;;;;;;;9.40;100.00;98123.81;4203022;28;20309;-87
2024/03/13 00:34:00;;;;;;;12.70;8.40;;;;;;;9.42;100.00;98124.53;4204321;28;20738;-86
2024/03/13 00:36:04;;;;;;;12.70;7.90;;;;;;;9.41;100.00;98128.91;4198675;28;21554;-87
2024/03/13 00:38:09;;;;;;;16.00;7.03;;;;;;;9.39;100.00;98122.97;4205554;28;20662;-87
2024/03/13 00:40:14;;;;;;;12.90;7.20;;;;;;;9.38;100.00;98123.06;4203518;28;20645;-85
2024/03/13 00:42:17;;;;;;;10.20;6.87;;;;;;;9.39;100.00;98119.53;4203568;28;21230;-87
2024/03/13 00:44:22;;;;;;;9.73;6.03;;;;;;;9.39;100.00;98128.16;4191036;28;20739;-83
2024/03/13 00:46:27;;;;;;;10.53;6.90;;;;;;;9.38;100.00;98126.50;4199090;28;20623;-87
2024/03/13 00:48:31;;;;;;;10.07;7.03;;;;;;;9.40;100.00;98127.25;4203494;28;20634;-87
2024/03/13 00:50:35;;;;;;;8.60;5.87;;;;;;;9.39;100.00;98115.16;4203903;28;20643;-86
2024/03/13 00:52:39;;;;;;;8.90;6.10;;;;;;;9.42;100.00;98130.56;4187166;28;20623;-85
2024/03/13 00:54:45;;;;;;;7.63;5.23;;;;;;;9.43;100.00;98126.22;4202842;28;20631;-87
2024/03/13 00:56:48;;;;;;;7.60;4.80;;;;;;;9.46;100.00;98128.63;4183236;28;20644;-84
2024/03/13 00:58:54;;;;;;;11.50;7.40;;;;;;;9.47;100.00;98122.47;4219395;28;20656;-86
2024/03/13 01:01:01;;;;;;;8.90;6.00;;;;;;;9.47;100.00;98118.13;4218781;28;20617;-88
2024/03/13 01:03:06;;;;;;;8.40;6.00;;;;;;;9.44;100.00;98101.84;4222185;28;20652;-87
2024/03/13 01:05:13;;;;;;;5.70;4.50;;;;;;;9.40;99.38;98100.38;4198075;28;20631;-85
2024/03/13 01:07:17;;;;;;;6.00;3.87;;;;;;;9.38;99.93;98101.41;4204532;28;20676;-85
2024/03/13 01:09:23;;;;;;;6.57;3.83;;;;;;;9.38;99.41;98107.44;4207278;28;20631;-87
2024/03/13 01:11:29;;;;;;;4.70;3.63;;;;;;;9.30;98.94;98099.28;4201542;28;20608;-87
2024/03/13 01:13:32;;;;;;;4.30;3.03;;;;;;;9.26;98.35;98096.97;4202771;28;20623;-86
2024/03/13 01:15:36;;;;;;;7.83;3.40;;;;;;;9.23;98.48;98092.81;4199633;28;20618;-86
2024/03/13 01:17:40;;;;;;;4.33;3.03;;;;;;;9.22;98.57;98088.53;4207836;28;20733;-87
2024/03/13 01:19:45;;;;;;;4.53;2.80;;;;;;;9.22;98.35;98100.72;4208783;28;20620;-85
2024/03/13 01:21:53;;;;;;;4.37;3.10;;;;;;;9.17;98.67;98093.22;4209437;28;21210;-78
2024/03/13 01:23:57;;;;;;;6.27;3.10;;;;;;;9.16;98.76;98096.72;4207595;28;20616;-78
2024/03/13 01:26:04;;;;;;;4.03;2.93;;;;;;;9.13;98.74;98102.13;4208456;27;20645;-80
2024/03/13 01:28:07;;;;;;;5.50;3.90;;;;;;;9.14;99.19;98096.00;4207091;28;20642;-79
2024/03/13 01:30:13;;;;;;;3.97;2.90;;;;;;;9.14;98.60;98096.00;4188737;28;20685;-78
2024/03/13 01:32:17;;;;;;;5.20;3.23;;;;;;;9.15;98.65;98100.25;4206026;28;20619;-78
2024/03/13 01:34:21;;;;;;;4.77;3.10;;;;;;;9.12;98.92;98092.63;4186958;28;20650;-79
2024/03/13 01:38:44;;;;;;;5.17;4.30;;;;;;;9.08;98.54;98092.91;4207421;28;20657;-79
2024/03/13 01:55:48;;;;;;;5.10;3.10;;;;;;;9.09;98.74;98092.81;4207980;28;20615;-78
2024/03/13 01:58:07;;;;;;;5.30;2.80;;;;;;;9.09;99.16;98087.63;4206379;28;20643;-79
2024/03/13 02:02:35;;;;;;;4.57;2.50;;;;;;;9.08;99.06;98082.50;4217337;27;20610;-78
2024/03/13 02:04:38;;;;;;;4.43;2.57;;;;;;;9.07;97.87;98083.47;4210012;28;20678;-78
2024/03/13 02:06:42;;;;;;;3.87;2.80;;;;;;;9.08;99.40;98083.38;4186734;28;20692;-79
2024/03/13 02:08:48;;;;;;;4.40;2.50;;;;;;;9.06;99.27;98080.00;4208039;28;20636;-79
2024/03/13 02:10:53;;;;;;;4.50;2.77;;;;;;;9.03;98.58;98080.19;4212156;28;21006;-78
2024/03/13 02:13:02;;;;;;;2.97;2.17;;;;;;;9.03;98.76;98074.16;4210476;28;20622;-78
2024/03/13 02:15:07;;;;;;;3.13;2.00;;;;;;;8.99;99.50;98076.13;4207593;28;20729;-79
2024/03/13 02:17:09;;;;;;;3.63;2.30;;;;;;;8.95;98.48;98068.63;4194754;28;20647;-78
2024/03/13 02:19:14;;;;;;;4.50;2.37;;;;;;;8.95;99.12;98068.63;4205840;28;20661;-78
2024/03/13 02:21:18;;;;;;;3.33;2.10;;;;;;;8.94;99.79;98060.00;4209921;28;20627;-78
2024/03/13 02:23:22;;;;;;;3.43;2.30;;;;;;;8.94;98.75;98060.00;4206431;28;20618;-79
2024/03/13 02:25:28;;;;;;;2.90;2.10;;;;;;;8.93;99.00;98063.50;4178222;28;20682;-77
2024/03/13 02:27:32;;;;;;;2.67;1.93;;;;;;;8.92;99.74;98064.44;4170059;28;20639;-78
2024/03/13 02:29:35;;;;;;;2.60;1.77;;;;;;;8.92;98.51;98058.41;4156192;28;20633;-77
2024/03/13 02:31:39;;;;;;;3.63;2.10;;;;;;;8.88;99.09;98053.50;4186798;28;20634;-87
2024/03/13 02:33:43;;;;;;;2.70;1.85;;;;;;;8.89;98.25;98052.56;4177935;28;20675;-86
2024/03/13 02:35:47;;;;;;;2.93;1.70;;;;;;;8.89;98.08;98057.78;4175774;28;20230;-86
2024/03/13 02:37:49;;;;;;;2.77;1.60;;;;;;;8.86;97.70;98053.59;4174289;28;20640;-86
2024/03/13 02:39:53;;;;;;;2.37;1.50;;;;;;;8.86;98.99;98044.97;4192465;28;20978;-86
2024/03/13 02:41:57;;;;;;;2.47;1.40;;;;;;;8.80;98.56;98050.53;4172427;28;20621;-86
2024/03/13 02:44:01;;;;;;;2.00;1.20;;;;;;;8.70;98.81;98041.63;4172183;28;20732;-84
2024/03/13 02:46:04;;;;;;;2.47;1.53;;;;;;;8.66;99.71;98042.75;4188777;28;20259;-86
2024/03/13 02:48:11;;;;;;;2.00;1.20;;;;;;;8.62;99.26;98036.06;4191642;28;20706;-86
2024/03/13 02:50:17;;;;;;;2.03;1.23;;;;;;;8.63;99.60;98043.78;4173250;28;20272;-85
2024/03/13 02:52:20;;;;;;;2.55;1.55;;;;;;;8.65;99.70;98036.72;4176880;28;20628;-86
2024/03/13 02:54:24;;;;;;;2.63;1.20;;;;;;;8.62;98.97;98036.91;4189229;28;20301;-86
2024/03/13 02:56:26;;;;;;;2.10;1.00;;;;;;;8.63;98.24;98032.53;4158022;28;20276;-87
2024/03/13 02:58:30;;;;;;;1.38;0.80;;;;;;;8.63;99.35;98027.31;4170694;28;20656;-85
2024/03/13 03:00:33;;;;;;;2.38;1.05;;;;;;;8.61;98.73;98030.03;4188030;28;20210;-85
2024/03/13 03:02:37;;;;;;;1.92;1.05;;;;;;;8.61;99.34;98035.22;4166132;28;20206;-82
2024/03/13 03:04:42;;;;;;;1.50;0.90;;;;;;;8.61;98.38;98031.78;4182970;28;20684;-86
2024/03/13 03:06:46;;;;;;;2.33;1.00;;;;;;;8.60;98.84;98038.78;4172941;28;20236;-86
2024/03/13 03:08:49;;;;;;;2.00;1.10;;;;;;;8.56;97.88;98034.69;4173717;28;20213;-84
2024/03/13 03:10:53;;;;;;;1.95;1.10;;;;;;;8.56;99.67;98041.66;4188078;28;20586;-85
2024/03/13 03:12:58;;;;;;;1.73;0.87;;;;;;;8.58;98.21;98040.59;4186281;28;20217;-86
2024/03/13 03:15:02;;;;;;;2.05;1.10;;;;;;;8.59;98.16;98036.25;4173168;28;20621;-85
2024/03/13 03:17:06;;;;;;;1.50;0.70;;;;;;;8.55;98.03;98039.97;4176105;28;20206;-86
2024/03/13 03:19:10;;;;;;;1.80;1.08;;;;;;;8.57;98.45;98046.75;4157166;28;21063;-86
2024/03/13 03:21:13;;;;;;;1.67;1.03;;;;;;;8.56;97.90;98045.06;4187726;28;20363;-87
2024/03/13 03:23:18;;;;;;;1.70;0.90;;;;;;;8.58;99.19;98042.38;4175673;28;20639;-86
2024/03/13 03:25:24;;;;;;;1.30;0.73;;;;;;;8.58;99.21;98040.59;4173091;28;20335;-86
2024/03/13 03:27:26;;;;;;;1.50;0.90;;;;;;;8.61;98.20;98055.19;4186563;28;20206;-84
2024/03/13 03:29:30;;;;;;;1.80;1.10;;;;;;;8.63;98.74;98048.97;4155527;28;20672;-85
2024/03/13 03:31:34;;;;;;;1.90;1.00;;;;;;;8.68;98.59;98051.28;4174102;28;20668;-86
2024/03/13 03:33:38;;;;;;;1.45;0.65;;;;;;;8.68;98.34;98051.28;4157987;28;20213;-85
2024/03/13 03:35:41;;;;;;;1.60;0.90;;;;;;;8.70;97.63;98055.44;4186287;28;20209;-83
2024/03/13 03:37:45;;;;;;;1.53;0.87;;;;;;;8.74;97.67;98056.13;4155876;28;20610;-84
2024/03/13 03:39:50;;;;;;;2.42;1.00;;;;;;;8.78;98.55;98058.44;4155028;28;20723;-86
2024/03/13 03:41:54;;;;;;;1.50;0.80;;;;;;;8.81;99.14;98057.41;4187382;28;20198;-86
2024/03/13 03:43:59;;;;;;;1.80;0.90;;;;;;;8.84;98.27;98057.19;4204287;28;21227;-86
2024/03/13 03:46:03;;;;;;;1.80;0.85;;;;;;;8.87;98.93;98067.41;4153103;28;20674;-85
2024/03/13 03:48:08;;;;;;;1.55;0.65;;;;;;;8.87;96.95;98062.22;4165788;28;20256;-86
2024/03/13 03:50:15;;;;;;;1.27;0.63;;;;;;;8.87;98.57;98063.06;4171864;28;20221;-77
2024/03/13 03:52:18;;;;;;;1.98;1.00;;;;;;;8.89;98.52;98052.56;4186718;28;20304;-77
2024/03/13 03:54:22;;;;;;;1.67;0.80;;;;;;;8.90;97.58;98060.28;4172060;28;20207;-77
2024/03/13 03:56:24;;;;;;;1.70;0.90;;;;;;;8.88;98.12;98063.91;4190531;28;20624;-78
2024/03/13 03:58:27;;;;;;;1.70;0.90;;;;;;;8.89;97.76;98062.97;4188443;28;20623;-77
2024/03/13 04:00:30;;;;;;;2.00;0.90;;;;;;;8.86;97.36;98058.78;4158067;28;21829;-78
2024/03/13 04:02:35;;;;;;;2.00;1.10;;;;;;;8.86;98.30;98060.56;4159380;28;20633;-78
2024/03/13 04:04:39;;;;;;;2.60;1.00;;;;;;;8.85;98.15;98062.31;4188711;28;20623;-78
2024/03/13 04:06:43;;;;;;;1.87;0.93;;;;;;;8.86;98.31;98056.19;4171303;28;20675;-78
2024/03/13 04:08:47;;;;;;;1.80;1.00;;;;;;;8.84;97.28;98065.88;4189523;28;20627;-79
2024/03/13 04:10:51;;;;;;;5.03;0.95;;;;;;;8.85;98.19;98064.09;4172462;28;20399;-79
2024/03/13 04:12:55;;;;;;;1.50;0.90;;;;;;;8.84;97.95;98057.19;4187168;28;20338;-78
2024/03/13 04:15:03;;;;;;;1.73;1.00;;;;;;;8.84;97.43;98057.19;4176019;28;20202;-80
2024/03/13 04:17:09;;;;;;;1.93;1.00;;;;;;;8.84;98.18;98055.47;4158045;28;20288;-81
2024/03/13 04:19:14;;;;;;;2.58;0.90;;;;;;;8.83;97.32;98061.59;4187768;28;20649;-81
2024/03/13 04:21:20;;;;;;;2.10;1.10;;;;;;;8.84;97.41;98062.41;4156565;28;20357;-81
2024/03/13 04:23:23;;;;;;;2.63;1.00;;;;;;;8.86;97.35;98057.97;4182308;28;20627;-81
2024/03/13 04:25:26;;;;;;;2.30;1.30;;;;;;;8.88;97.97;98058.69;4186638;28;20727;-80
2024/03/13 04:27:29;;;;;;;3.47;0.97;;;;;;;8.87;97.64;98057.00;4185355;28;20617;-81
2024/03/13 04:29:33;;;;;;;2.07;1.23;;;;;;;8.86;98.67;98063.16;4173098;28;20628;-80
2024/03/13 04:31:49;;;;;;;1.77;1.10;;;;;;;8.83;98.61;98074.59;4160841;28;20618;-78
2024/03/13 04:33:53;;;;;;;1.70;1.00;;;;;;;8.86;98.68;98078.78;4157801;28;20646;-78
2024/03/13 04:35:58;;;;;;;1.70;0.93;;;;;;;8.87;97.76;98063.06;4185699;28;20624;-80
2024/03/13 04:38:01;;;;;;;1.60;1.10;;;;;;;8.91;98.78;98069.72;4172392;28;20650;-81
2024/03/13 04:40:10;;;;;;;1.70;1.00;;;;;;;8.94;97.84;98064.34;4157109;28;20708;-81
2024/03/13 04:42:13;;;;;;;2.13;1.10;;;;;;;8.93;98.03;98063.50;4178231;28;20654;-81
2024/03/13 04:44:17;;;;;;;1.97;1.17;;;;;;;8.93;98.13;98062.69;4157700;28;20628;-81
2024/03/13 04:46:19;;;;;;;2.60;0.97;;;;;;;8.89;97.23;98065.56;4172677;28;21594;-80
2024/03/13 04:48:23;;;;;;;2.87;1.20;;;;;;;8.90;98.05;98072.44;4184882;28;20714;-80
2024/03/13 04:50:27;;;;;;;2.22;0.95;;;;;;;8.89;97.36;98065.56;4170708;28;20723;-78
2024/03/13 04:52:30;;;;;;;1.80;1.30;;;;;;;8.90;97.44;98072.44;4182887;28;20232;-77
2024/03/13 04:54:34;;;;;;;1.70;1.13;;;;;;;8.93;97.10;98067.91;4172176;28;20289;-78
2024/03/13 04:56:38;;;;;;;1.73;1.07;;;;;;;8.92;98.08;98082.63;4170444;28;20656;-78
2024/03/13 04:58:44;;;;;;;2.10;1.30;;;;;;;8.95;98.16;98082.44;4182637;28;20677;-78
2024/03/13 05:00:47;;;;;;;1.87;1.13;;;;;;;8.96;98.46;98084.13;4184503;28;20651;-78
2024/03/13 05:02:51;;;;;;;1.97;1.13;;;;;;;8.98;97.63;98087.47;4184896;28;21598;-77
2024/03/13 05:04:57;;;;;;;1.83;1.03;;;;;;;8.99;97.81;98094.34;4185860;28;21255;-79
2024/03/13 05:07:02;;;;;;;1.93;1.33;;;;;;;9.01;96.68;98096.84;4174575;28;20746;-77
2024/03/13 05:09:06;;;;;;;2.47;1.10;;;;;;;9.01;97.35;98092.47;4174507;28;20628;-78
2024/03/13 05:11:11;;;;;;;1.80;0.90;;;;;;;9.03;96.97;98095.81;4172048;28;20620;-84
2024/03/13 05:13:15;;;;;;;1.97;1.00;;;;;;;9.05;96.94;98093.97;4188252;28;20660;-86
2024/03/13 05:15:19;;;;;;;2.70;1.10;;;;;;;9.06;97.47;98098.22;4172159;28;21205;-88
2024/03/13 05:17:21;;;;;;;2.30;0.93;;;;;;;9.06;97.12;98089.59;4169308;28;21262;-88
2024/03/13 05:19:24;;;;;;;1.93;1.03;;;;;;;9.06;97.93;98090.41;4168437;28;21516;-85
2024/03/13 05:21:28;;;;;;;2.10;1.10;;;;;;;9.05;97.55;98091.38;4174704;28;20631;-87
2024/03/13 05:23:31;;;;;;;2.33;1.00;;;;;;;9.02;97.70;98096.75;4186798;28;20625;-86
2024/03/13 05:25:34;;;;;;;2.13;1.20;;;;;;;8.98;97.79;98090.06;4180431;28;21207;-85
2024/03/13 05:27:38;;;;;;;1.47;0.83;;;;;;;8.94;96.58;98090.34;4185180;28;20624;-88
2024/03/13 05:29:41;;;;;;;2.10;1.07;;;;;;;8.92;96.83;98096.59;4170956;28;20616;-89
2024/03/13 05:31:45;;;;;;;2.33;1.10;;;;;;;8.92;96.94;98107.81;4184010;28;20654;-88
2024/03/13 05:33:48;;;;;;;1.50;0.90;;;;;;;8.92;96.78;98098.25;4170041;28;20636;-88
2024/03/13 05:35:53;;;;;;;2.30;1.25;;;;;;;8.93;96.52;98099.94;4170215;28;20627;-85
2024/03/13 05:37:56;;;;;;;1.77;1.00;;;;;;;8.96;97.00;98106.72;4168183;28;20255;-87
2024/03/13 05:40:01;;;;;;;1.67;1.08;;;;;;;8.98;95.78;98118.66;4170555;28;20755;-88
2024/03/13 05:42:05;;;;;;;2.53;1.30;;;;;;;9.00;97.04;98113.38;4170527;28;20257;-88
2024/03/13 05:44:09;;;;;;;2.40;1.10;;;;;;;8.99;96.44;98120.34;4182990;28;20655;-86
2024/03/13 05:46:12;;;;;;;2.23;1.20;;;;;;;9.03;96.88;98121.00;4168971;28;20724;-86
2024/03/13 05:48:16;;;;;;;1.90;1.07;;;;;;;9.04;96.64;98110.50;4184815;28;20627;-85
2024/03/13 05:50:18;;;;;;;2.10;1.00;;;;;;;9.05;98.05;98113.91;4169978;28;20736;-88
2024/03/13 05:52:22;;;;;;;2.20;1.15;;;;;;;9.01;96.94;98110.69;4152687;28;20649;-88
2024/03/13 05:54:26;;;;;;;2.80;1.40;;;;;;;9.01;97.83;98102.88;4167301;28;20263;-85
2024/03/13 05:56:30;;;;;;;2.22;1.45;;;;;;;8.99;96.45;98111.69;4169083;28;20617;-86
2024/03/13 05:58:33;;;;;;;3.50;2.20;;;;;;;9.01;97.51;98113.28;4184586;28;20293;-90
2024/03/13 06:00:40;;;;;;;3.17;1.80;;;;;;;9.00;97.80;98122.00;4168617;28;20599;-91
2024/03/13 06:02:44;;;;;;;2.63;1.40;;;;;;;9.02;96.67;98127.13;4170435;28;21100;-88
2024/03/13 06:04:47;;;;;;;2.27;1.63;;;;;;;9.03;97.44;98126.19;4173245;28;20641;-89
2024/03/13 06:06:52;;;;;;;2.67;1.70;;;;;;;9.04;97.68;98120.06;4192652;28;20651;-86
2024/03/13 06:08:56;;;;;;;3.10;1.50;;;;;;;9.07;97.44;98117.28;4160738;28;20637;-86
2024/03/13 06:10:59;;;;;;;2.37;1.20;;;;;;;9.06;96.68;98115.59;4175165;28;20718;-88
2024/03/13 06:13:02;;;;;;;1.93;1.17;;;;;;;9.08;97.96;98119.78;4172334;28;20639;-89
2024/03/13 06:15:08;;;;;;;2.30;1.13;;;;;;;9.08;96.83;98130.19;4174343;28;20631;-88
2024/03/13 06:17:12;;;;;;;2.27;1.10;;;;;;;9.10;96.40;98130.09;4171817;28;20632;-87
2024/03/13 06:19:15;;;;;;;2.70;1.20;;;;;;;9.15;97.82;98133.25;4176031;28;21345;-87
2024/03/13 06:21:20;;;;;;;1.60;0.90;;;;;;;9.19;98.17;98130.34;4168740;28;21283;-79
2024/03/13 06:23:26;;;;;;;2.30;1.23;;;;;;;9.26;97.49;98138.59;4175381;28;20624;-81
2024/03/13 06:25:28;;;;;;;2.03;1.60;;;;;;;9.28;96.94;98131.56;4187437;28;20619;-82
2024/03/13 06:27:33;;;;;;;2.95;1.42;;;;;;;9.30;97.32;98135.72;4175388;28;20642;-81
2024/03/13 06:31:57;;;;;;;2.95;1.45;;;;;;;9.22;96.64;98131.94;4191760;28;21268;-79
2024/03/13 06:34:01;;;;;;;2.90;1.70;;;;;;;9.21;97.81;98138.88;4172295;28;20879;-80
2024/03/13 06:36:04;;;;;;;3.37;1.60;;;;;;;9.21;97.68;98141.50;4189698;28;20640;-80
2024/03/13 06:38:08;;;;;;;2.23;1.43;;;;;;;9.24;97.00;98149.13;4184500;28;27958;-79
2024/03/13 06:40:11;;;;;;;2.22;1.48;;;;;;;9.31;97.34;98150.41;4178068;28;20662;-79
2024/03/13 06:42:14;;;;;;;2.07;1.23;;;;;;;9.37;97.69;98152.63;4169661;28;20283;-80
2024/03/13 06:44:17;;;;;;;1.90;1.10;;;;;;;9.41;96.91;98148.88;4174291;28;20629;-80
2024/03/13 06:46:20;;;;;;;2.20;1.20;;;;;;;9.43;96.79;98152.25;4193266;28;20214;-78
2024/03/13 06:48:26;;;;;;;2.80;1.30;;;;;;;9.41;96.56;98154.94;4173375;28;20265;-79
2024/03/13 06:50:29;;;;;;;2.73;1.00;;;;;;;9.43;97.23;98150.47;4188651;28;21219;-79
2024/03/13 06:52:36;;;;;;;2.70;1.03;;;;;;;9.44;96.40;98156.50;4159479;28;20676;-78
2024/03/13 06:54:39;;;;;;;2.33;1.20;;;;;;;9.44;96.01;98165.16;4168560;28;21233;-78
2024/03/13 06:56:43;;;;;;;2.00;1.20;;;;;;;9.45;95.75;98160.78;4205921;28;20645;-79
2024/03/13 06:58:47;;;;;;;1.77;0.97;;;;;;;9.46;96.44;98157.25;4173084;28;20625;-80
2024/03/13 07:00:52;;;;;;;2.07;1.10;;;;;;;9.49;97.16;98151.88;4190101;28;20742;-81
2024/03/13 07:02:56;;;;;;;2.47;1.23;;;;;;;9.52;96.62;98146.47;4190752;28;20661;-80
2024/03/13 07:05:00;;;;;;;2.47;1.30;;;;;;;9.49;96.83;98142.28;4174566;28;21231;-79
2024/03/13 07:07:02;;;;;;;2.83;1.20;;;;;;;9.53;96.92;98145.50;4191595;28;20229;-79
2024/03/13 07:09:07;;;;;;;2.53;1.27;;;;;;;9.57;97.19;98150.44;4190272;28;21208;-79
2024/03/13 07:11:13;;;;;;;1.97;1.00;;;;;;;9.66;96.97;98152.44;4191334;28;20619;-79
2024/03/13 07:13:18;;;;;;;2.10;1.30;;;;;;;9.73;96.99;98163.34;4174396;28;20674;-79
2024/03/13 07:15:22;;;;;;;2.67;1.43;;;;;;;9.73;96.51;98171.16;4176801;28;20640;-79
2024/03/13 07:17:27;;;;;;;2.17;1.50;;;;;;;9.75;96.33;98174.47;4175888;28;20648;-81
2024/03/13 07:19:33;;;;;;;4.17;3.13;;;;;;;9.77;97.54;98162.19;4168075;28;21052;-79
2024/03/13 07:21:36;;;;;;;2.97;2.03;;;;;;;9.78;96.53;98153.44;4158288;28;20669;-80
2024/03/13 07:23:41;;;;;;;1.80;1.10;;;;;;;9.80;96.90;98162.81;4175320;28;20612;-78
2024/03/13 07:25:45;;;;;;;2.40;1.37;;;;;;;9.83;96.88;98167.84;4171829;28;20633;-80
2024/03/13 07:27:48;;;;;;;2.50;1.23;;;;;;;9.92;97.13;98170.69;4175793;28;20621;-77
2024/03/13 07:29:52;;;;;;;2.97;1.77;;;;;;;9.97;97.17;98171.25;4177407;28;20667;-83
2024/03/13 07:31:56;;;;;;;2.40;1.50;;;;;;;10.03;97.04;98165.66;4161769;28;21293;-85
2024/03/13 07:33:58;;;;;;;2.20;1.30;;;;;;;10.04;96.63;98169.94;4172453;28;20707;-84
2024/03/13 07:36:01;;;;;;;2.13;1.43;;;;;;;10.09;96.79;98178.28;4174230;28;20625;-86
2024/03/13 07:38:07;;;;;;;2.10;1.20;;;;;;;10.14;96.74;98186.63;4171866;28;20634;-83
2024/03/13 07:40:11;;;;;;;2.57;1.23;;;;;;;10.17;95.88;98180.41;4177891;28;20667;-86
2024/03/13 07:42:16;;;;;;;1.90;1.40;;;;;;;10.22;95.76;98180.91;4177876;28;20684;-86
2024/03/13 07:44:20;;;;;;;1.77;1.27;;;;;;;10.28;96.66;98183.13;4177861;28;20628;-85
2024/03/13 07:46:22;;;;;;;3.83;3.10;;;;;;;10.31;97.34;98182.94;4190236;28;20668;-86
2024/03/13 07:48:26;;;;;;;3.07;1.50;;;;;;;10.37;95.80;98188.56;4174013;28;20637;-85
2024/03/13 07:50:29;;;;;;;1.87;1.20;;;;;;;10.41;96.58;98190.88;4187284;28;20639;-86
2024/03/13 07:52:32;;;;;;;2.10;1.27;;;;;;;10.48;96.08;98188.72;4172630;28;20647;-86
2024/03/13 07:54:37;;;;;;;3.97;1.30;;;;;;;10.50;95.13;98185.03;4173471;28;20700;-86
2024/03/13 07:56:39;;;;;;;1.80;1.20;;;;;;;10.56;95.19;98189.03;4170738;28;20873;-86
2024/03/13 07:58:43;;;;;;;2.23;1.43;;;;;;;10.62;95.59;98186.00;4192396;28;20639;-86
2024/03/13 08:00:46;;;;;;;4.67;1.30;;;;;;;10.65;94.89;98184.03;4189347;28;20655;-86
2024/03/13 08:02:51;;;;;;;2.13;1.47;;;;;;;10.67;96.29;98192.56;4163494;28;20640;-83
2024/03/13 08:04:58;;;;;;;1.97;1.40;;;;;;;10.69;94.79;98192.47;4174846;28;20620;-86
2024/03/13 08:07:03;;;;;;;2.50;1.23;;;;;;;10.61;94.50;98200.81;4174784;28;20668;-84
2024/03/13 08:09:28;;;;;;;2.50;1.50;;;;;;;10.63;96.23;98204.16;4162728;28;21059;-87
2024/03/13 08:11:48;;;;;;;2.20;1.50;;;;;;;10.65;96.33;98214.50;4206517;28;20638;-88
2024/03/13 08:14:10;;;;;;;2.05;1.35;;;;;;;10.65;95.72;98207.50;4175528;28;21195;-86
2024/03/13 08:16:31;;;;;;;2.60;1.70;;;;;;;10.68;96.14;98207.28;4174814;28;20254;-83
2024/03/13 08:18:51;;;;;;;2.77;1.40;;;;;;;10.74;95.14;98213.88;4177431;28;20631;-88
2024/03/13 08:21:12;;;;;;;2.20;1.50;;;;;;;10.75;97.61;98215.53;4191066;28;20655;-87
2024/03/13 08:23:33;;;;;;;1.90;1.40;;;;;;;10.83;97.38;98221.91;4168713;28;20612;-88
2024/03/13 08:25:54;;;;;;;2.00;1.40;;;;;;;10.90;96.85;98223.19;4185186;28;20611;-85
2024/03/13 08:28:15;;;;;;;3.23;1.77;;;;;;;10.93;95.61;98223.81;4176708;28;21245;-88
2024/03/13 08:30:36;;;;;;;2.20;1.43;;;;;;;10.98;96.40;98223.50;4176400;28;21202;-85
2024/03/13 08:32:59;;;;;;;2.20;1.40;;;;;;;10.94;94.24;98215.03;4194221;28;20615;-88
2024/03/13 08:35:22;;;;;;;2.40;1.80;;;;;;;10.95;95.21;98219.31;4163145;28;20709;-88
2024/03/13 08:37:43;;;;;;;4.37;1.40;;;;;;;11.03;94.76;98219.63;4189197;28;20623;-87
2024/03/13 08:40:07;;;;;;;2.63;1.70;;;;;;;11.16;96.48;98236.13;4191680;28;21086;-79
2024/03/13 08:42:28;;;;;;;2.73;1.80;;;;;;;11.24;95.24;98238.22;4192301;28;20639;-80
2024/03/13 08:44:48;;;;;;;2.77;1.70;;;;;;;11.28;94.40;98236.13;4194732;28;20650;-81
2024/03/13 08:47:10;;;;;;;2.30;1.57;;;;;;;11.29;93.58;98244.81;4189419;28;20637;-80
2024/03/13 08:49:31;;;;;;;3.00;2.13;;;;;;;11.25;93.85;98237.28;4195173;28;20673;-80
2024/03/13 08:51:52;;;;;;;2.87;2.20;;;;;;;11.23;94.55;98244.38;4178227;28;20622;-79
2024/03/13 08:54:13;;;;;;;2.50;1.60;;;;;;;11.18;95.40;98246.47;4177039;28;21174;-79
2024/03/13 08:56:37;;;;;;;3.10;1.80;;;;;;;11.17;94.97;98248.25;4189113;28;20703;-80
2024/03/13 08:58:59;;;;;;;2.30;1.57;;;;;;;11.20;95.64;98253.25;4178730;28;20664;-79
2024/03/13 09:01:20;;;;;;;2.87;1.80;;;;;;;11.21;94.98;98244.47;4161662;28;20682;-80
2024/03/13 09:03:42;;;;;;;3.63;1.80;;;;;;;11.23;94.43;98258.28;4180780;28;21378;-80
2024/03/13 09:06:04;;;;;;;3.03;1.97;;;;;;;11.22;94.92;98261.00;4190450;28;20654;-79
2024/03/13 09:08:13;;;;;;;3.37;1.70;;;;;;;11.25;95.05;98259.00;4172585;28;20693;-79
2024/03/13 09:10:18;;;;;;;4.10;1.90;;;;;;;11.27;95.71;98259.72;4170454;28;20652;-80
2024/03/13 09:12:21;;;;;;;3.40;1.80;;;;;;;11.32;94.46;98262.84;4181319;28;20640;-80
2024/03/13 09:14:26;;;;;;;2.53;1.77;;;;;;;11.35;94.86;98270.47;4187216;28;20630;-80
2024/03/13 09:16:31;;;;;;;3.67;2.40;;;;;;;11.34;94.55;98276.66;4193289;28;20980;-79
2024/03/13 09:18:35;;;;;;;3.63;1.80;;;;;;;11.30;94.90;98270.78;4191392;28;20645;-79
2024/03/13 09:20:41;;;;;;;2.30;1.90;;;;;;;11.31;96.69;98277.69;4174673;28;20620;-80
2024/03/13 09:22:45;;;;;;;2.97;2.13;;;;;;;11.33;96.75;98282.81;4168332;28;21235;-80
2024/03/13 09:24:50;;;;;;;2.87;2.10;;;;;;;11.34;95.38;98279.25;4202653;28;20627;-79
2024/03/13 09:26:56;;;;;;;3.70;1.90;;;;;;;11.37;94.84;98276.44;4169960;28;20641;-80
2024/03/13 09:29:01;;;;;;;3.30;1.97;;;;;;;11.38;96.31;98280.69;4185066;28;20685;-80
2024/03/13 09:31:04;;;;;;;4.77;2.20;;;;;;;11.37;96.95;98281.66;4165226;28;20652;-80
2024/03/13 09:33:10;;;;;;;2.53;2.03;;;;;;;11.41;97.02;98277.88;4154094;28;20629;-81
2024/03/13 09:35:17;;;;;;;3.40;2.17;;;;;;;11.49;97.09;98280.84;4175099;28;20617;-80
2024/03/13 09:37:21;;;;;;;3.70;2.20;;;;;;;11.47;97.03;98280.09;4168429;28;20621;-81
2024/03/13 09:39:24;;;;;;;3.67;2.30;;;;;;;11.44;98.80;98275.06;4154961;28;20625;-80
2024/03/13 09:41:29;;;;;;;3.73;2.30;;;;;;;11.39;98.81;98282.38;4160818;28;20641;-79
2024/03/13 09:43:33;;;;;;;3.00;2.20;;;;;;;11.41;99.27;98281.34;4170183;28;20647;-80
2024/03/13 09:45:36;;;;;;;3.40;2.20;;;;;;;11.44;97.87;98285.50;4175644;28;20624;-79
2024/03/13 09:47:40;;;;;;;5.10;2.50;;;;;;;11.46;98.79;98278.41;4160838;28;20669;-81
2024/03/13 09:49:43;;;;;;;3.80;2.73;;;;;;;11.48;99.67;98273.94;4188328;28;21056;-79
2024/03/13 09:51:46;;;;;;;3.33;2.30;;;;;;;11.54;99.34;98284.81;4190899;28;20623;-79
2024/03/13 09:53:50;;;;;;;2.77;2.40;;;;;;;11.61;100.00;98296.50;4174956;28;20686;-81
2024/03/13 09:55:54;;;;;;;3.60;2.30;;;;;;;11.63;99.40;98294.63;4190136;28;20646;-81
2024/03/13 09:57:56;;;;;;;3.30;2.40;;;;;;;11.67;100.00;98303.09;4176857;28;20633;-79
2024/03/13 10:00:02;;;;;;;4.57;2.60;;;;;;;11.69;98.51;98295.97;4192075;28;20635;-79
2024/03/13 10:02:07;;;;;;;4.27;2.43;;;;;;;11.73;98.65;98294.81;4195491;28;20647;-79
2024/03/13 10:04:12;;;;;;;2.90;2.50;;;;;;;11.77;100.00;98302.31;4171342;28;20619;-80
2024/03/13 10:06:15;;;;;;;2.97;2.20;;;;;;;11.83;99.19;98301.91;4177245;28;21229;-80
2024/03/13 10:08:18;;;;;;;3.13;2.10;;;;;;;11.87;100.00;98301.56;4184846;28;20633;-80
2024/03/13 10:10:26;;;;;;;3.30;2.47;;;;;;;11.93;98.70;98302.94;4172776;28;20666;-80
2024/03/13 10:12:30;;;;;;;4.90;2.33;;;;;;;11.91;100.00;98299.59;4174820;28;20670;-80
2024/03/13 10:14:35;;;;;;;3.03;1.93;;;;;;;11.97;100.00;98305.22;4174573;28;20625;-79
2024/03/13 10:16:37;;;;;;;4.00;2.40;;;;;;;12.02;100.00;98304.91;4172640;28;20627;-80
2024/03/13 10:18:42;;;;;;;2.60;1.80;;;;;;;12.06;100.00;98301.97;4175417;28;20776;-80